sensor_id;sensor_type;location;lat;lon;timestamp;pressure;altitude;pressure_sealevel;temperature;humidity
12468;BME280;57850;52.922;6.256;2023-11-21T00:01:15;99811.44;;;12.42;nan
12468;BME280;57850;52.922;6.256;2023-11-21T00:03:42;99793.72;;;12.47;nan
12468;BME280;57850;52.922;6.256;2023-11-21T00:06:10;99787.16;;;12.54;nan
12468;BME280;57850;52.922;6.256;2023-11-21T00:08:37;99791.56;;;12.39;nan
12468;BME280;57850;52.922;6.256;2023-11-21T00:11:04;99793.13;;;12.42;nan
12468;BME280;57850;52.922;6.256;2023-11-21T00:13:31;99792.41;;;12.40;nan
12468;BME280;57850;52.922;6.256;2023-11-21T00:15:58;99780.34;;;12.37;nan
12468;BME280;57850;52.922;6.256;2023-11-21T00:18:25;99787.44;;;12.21;nan
12468;BME280;57850;52.922;6.256;2023-11-21T00:20:51;99782.69;;;12.56;nan
12468;BME280;57850;52.922;6.256;2023-11-21T00:23:19;99796.88;;;12.66;nan
12468;BME280;57850;52.922;6.256;2023-11-21T00:25:46;99815.19;;;12.66;nan
12468;BME280;57850;52.922;6.256;2023-11-21T00:28:13;99852.84;;;12.35;nan
12468;BME280;57850;52.922;6.256;2023-11-21T00:30:39;99790.16;;;12.48;nan
12468;BME280;57850;52.922;6.256;2023-11-21T00:33:06;99787.34;;;12.37;nan
12468;BME280;57850;52.922;6.256;2023-11-21T00:35:33;99794.00;;;12.42;nan
12468;BME280;57850;52.922;6.256;2023-11-21T00:38:00;99825.56;;;12.53;nan
12468;BME280;57850;52.922;6.256;2023-11-21T00:40:28;99863.03;;;12.10;nan
12468;BME280;57850;52.922;6.256;2023-11-21T00:42:54;99813.66;;;12.19;nan
12468;BME280;57850;52.922;6.256;2023-11-21T00:45:22;99766.44;;;12.37;nan
12468;BME280;57850;52.922;6.256;2023-11-21T00:47:48;99775.75;;;12.26;nan
12468;BME280;57850;52.922;6.256;2023-11-21T00:50:14;99794.34;;;12.50;nan
12468;BME280;57850;52.922;6.256;2023-11-21T00:52:40;99809.78;;;12.55;nan
12468;BME280;57850;52.922;6.256;2023-11-21T00:55:08;99842.47;;;12.48;nan
12468;BME280;57850;52.922;6.256;2023-11-21T00:57:36;99859.56;;;12.39;nan
12468;BME280;57850;52.922;6.256;2023-11-21T01:00:04;99823.25;;;12.49;nan
12468;BME280;57850;52.922;6.256;2023-11-21T01:02:33;99831.72;;;12.24;nan
12468;BME280;57850;52.922;6.256;2023-11-21T01:05:01;99769.13;;;12.21;nan
12468;BME280;57850;52.922;6.256;2023-11-21T01:07:27;99725.97;;;12.42;nan
12468;BME280;57850;52.922;6.256;2023-11-21T01:09:54;99711.75;;;12.04;nan
12468;BME280;57850;52.922;6.256;2023-11-21T01:12:21;99591.16;;;11.96;nan
12468;BME280;57850;52.922;6.256;2023-11-21T01:14:51;99403.72;;;12.10;nan
12468;BME280;57850;52.922;6.256;2023-11-21T01:17:18;99267.75;;;12.10;nan
12468;BME280;57850;52.922;6.256;2023-11-21T01:19:44;99153.00;;;12.31;72.85
12468;BME280;57850;52.922;6.256;2023-11-21T01:22:11;99121.69;;;12.18;72.83
12468;BME280;57850;52.922;6.256;2023-11-21T01:24:38;99064.88;;;12.20;nan
12468;BME280;57850;52.922;6.256;2023-11-21T01:27:04;99063.22;;;12.07;72.82
12468;BME280;57850;52.922;6.256;2023-11-21T01:29:32;98989.97;;;12.19;nan
12468;BME280;57850;52.922;6.256;2023-11-21T01:32:02;98964.34;;;12.24;nan
12468;BME280;57850;52.922;6.256;2023-11-21T01:34:29;98953.56;;;12.05;nan
12468;BME280;57850;52.922;6.256;2023-11-21T01:36:56;98887.41;;;12.16;nan
12468;BME280;57850;52.922;6.256;2023-11-21T01:39:22;98927.13;;;11.97;nan
12468;BME280;57850;52.922;6.256;2023-11-21T01:41:50;98789.13;;;12.13;nan
12468;BME280;57850;52.922;6.256;2023-11-21T01:44:17;98760.81;;;11.96;nan
12468;BME280;57850;52.922;6.256;2023-11-21T01:46:45;98629.19;;;12.08;nan
12468;BME280;57850;52.922;6.256;2023-11-21T01:49:13;98586.41;;;12.09;nan
12468;BME280;57850;52.922;6.256;2023-11-21T01:51:41;98595.22;;;12.08;nan
12468;BME280;57850;52.922;6.256;2023-11-21T01:54:09;98589.84;;;12.21;nan
12468;BME280;57850;52.922;6.256;2023-11-21T01:56:37;98581.19;;;12.20;nan
12468;BME280;57850;52.922;6.256;2023-11-21T01:59:04;98615.50;;;12.27;nan
12468;BME280;57850;52.922;6.256;2023-11-21T02:01:32;98630.50;;;12.14;nan
12468;BME280;57850;52.922;6.256;2023-11-21T02:03:59;98641.78;;;12.14;nan
12468;BME280;57850;52.922;6.256;2023-11-21T02:06:27;98592.13;;;12.14;nan
12468;BME280;57850;52.922;6.256;2023-11-21T02:08:56;98583.53;;;12.12;nan
12468;BME280;57850;52.922;6.256;2023-11-21T02:11:23;98596.16;;;12.18;nan
12468;BME280;57850;52.922;6.256;2023-11-21T02:13:49;98573.34;;;12.09;nan
12468;BME280;57850;52.922;6.256;2023-11-21T02:16:19;98548.88;;;12.21;nan
12468;BME280;57850;52.922;6.256;2023-11-21T02:18:46;98563.00;;;12.08;nan
12468;BME280;57850;52.922;6.256;2023-11-21T02:21:13;98518.47;;;11.98;nan
12468;BME280;57850;52.922;6.256;2023-11-21T02:23:41;98417.13;;;12.02;nan
12468;BME280;57850;52.922;6.256;2023-11-21T02:26:09;98349.97;;;11.81;nan
12468;BME280;57850;52.922;6.256;2023-11-21T02:28:36;98197.34;;;12.05;nan
12468;BME280;57850;52.922;6.256;2023-11-21T02:31:04;98126.78;;;12.05;nan
12468;BME280;57850;52.922;6.256;2023-11-21T02:33:31;98094.59;;;12.04;nan
12468;BME280;57850;52.922;6.256;2023-11-21T02:35:59;98011.09;;;12.12;nan
12468;BME280;57850;52.922;6.256;2023-11-21T02:38:25;97981.81;;;12.28;nan
12468;BME280;57850;52.922;6.256;2023-11-21T02:40:54;98035.38;;;12.33;nan
12468;BME280;57850;52.922;6.256;2023-11-21T02:43:20;98019.44;;;12.37;nan
12468;BME280;57850;52.922;6.256;2023-11-21T02:45:47;98039.50;;;12.26;nan
12468;BME280;57850;52.922;6.256;2023-11-21T02:48:13;98019.84;;;12.42;nan
12468;BME280;57850;52.922;6.256;2023-11-21T02:50:40;98081.91;;;12.40;nan
12468;BME280;57850;52.922;6.256;2023-11-21T02:53:08;98045.88;;;12.43;nan
12468;BME280;57850;52.922;6.256;2023-11-21T02:55:36;98057.38;;;12.31;nan
12468;BME280;57850;52.922;6.256;2023-11-21T02:58:04;98115.69;;;12.22;nan
12468;BME280;57850;52.922;6.256;2023-11-21T03:00:31;98072.03;;;12.72;nan
12468;BME280;57850;52.922;6.256;2023-11-21T03:02:58;98236.00;;;12.62;nan
12468;BME280;57850;52.922;6.256;2023-11-21T03:05:25;98291.09;;;12.70;nan
12468;BME280;57850;52.922;6.256;2023-11-21T03:07:54;98352.63;;;12.95;nan
12468;BME280;57850;52.922;6.256;2023-11-21T03:10:20;98467.31;;;12.80;nan
12468;BME280;57850;52.922;6.256;2023-11-21T03:12:48;98522.94;;;12.82;nan
12468;BME280;57850;52.922;6.256;2023-11-21T03:15:16;98574.31;;;12.62;nan
12468;BME280;57850;52.922;6.256;2023-11-21T03:17:43;98537.69;;;12.62;nan
12468;BME280;57850;52.922;6.256;2023-11-21T03:20:10;98485.22;;;12.84;nan
12468;BME280;57850;52.922;6.256;2023-11-21T03:22:37;98513.00;;;12.76;nan
12468;BME280;57850;52.922;6.256;2023-11-21T03:25:04;98568.09;;;12.63;nan
12468;BME280;57850;52.922;6.256;2023-11-21T03:27:31;98559.03;;;12.47;nan
12468;BME280;57850;52.922;6.256;2023-11-21T03:29:58;98502.50;;;12.55;nan
12468;BME280;57850;52.922;6.256;2023-11-21T03:32:26;98463.84;;;12.59;nan
12468;BME280;57850;52.922;6.256;2023-11-21T03:34:54;98440.31;;;12.79;nan
12468;BME280;57850;52.922;6.256;2023-11-21T03:37:22;98442.53;;;12.84;nan
12468;BME280;57850;52.922;6.256;2023-11-21T03:39:48;98461.56;;;12.86;nan
12468;BME280;57850;52.922;6.256;2023-11-21T03:42:15;98468.56;;;12.85;nan
12468;BME280;57850;52.922;6.256;2023-11-21T03:44:41;98508.91;;;12.83;nan
12468;BME280;57850;52.922;6.256;2023-11-21T03:47:08;98533.88;;;12.87;nan
12468;BME280;57850;52.922;6.256;2023-11-21T03:49:37;98547.94;;;12.75;nan
12468;BME280;57850;52.922;6.256;2023-11-21T03:52:04;98570.88;;;12.82;nan
12468;BME280;57850;52.922;6.256;2023-11-21T03:54:31;98582.34;;;13.02;nan
12468;BME280;57850;52.922;6.256;2023-11-21T03:56:57;98649.06;;;13.08;nan
12468;BME280;57850;52.922;6.256;2023-11-21T03:59:24;98693.13;;;13.14;nan
12468;BME280;57850;52.922;6.256;2023-11-21T04:01:50;98713.63;;;13.09;nan
12468;BME280;57850;52.922;6.256;2023-11-21T04:04:17;98735.38;;;12.98;nan
12468;BME280;57850;52.922;6.256;2023-11-21T04:06:46;98734.53;;;12.98;nan
12468;BME280;57850;52.922;6.256;2023-11-21T04:09:13;98726.72;;;12.86;nan
12468;BME280;57850;52.922;6.256;2023-11-21T04:11:39;98696.50;;;12.94;nan
12468;BME280;57850;52.922;6.256;2023-11-21T04:14:06;98682.53;;;13.04;nan
12468;BME280;57850;52.922;6.256;2023-11-21T04:16:32;98689.09;;;13.10;nan
12468;BME280;57850;52.922;6.256;2023-11-21T04:18:59;98718.47;;;13.13;nan
12468;BME280;57850;52.922;6.256;2023-11-21T04:21:26;98776.91;;;13.03;nan
12468;BME280;57850;52.922;6.256;2023-11-21T04:23:54;98795.25;;;13.14;nan
12468;BME280;57850;52.922;6.256;2023-11-21T04:26:20;98810.13;;;13.24;nan
12468;BME280;57850;52.922;6.256;2023-11-21T04:28:47;98849.03;;;13.18;nan
12468;BME280;57850;52.922;6.256;2023-11-21T04:31:13;98848.94;;;13.08;nan
12468;BME280;57850;52.922;6.256;2023-11-21T04:33:40;98417.28;;;10.07;76.98
12468;BME280;57850;52.922;6.256;2023-11-21T04:36:07;98450.69;;;10.71;77.04
12468;BME280;57850;52.922;6.256;2023-11-21T04:38:34;98651.50;;;13.00;nan
12468;BME280;57850;52.922;6.256;2023-11-21T04:41:02;98671.47;;;13.01;nan
12468;BME280;57850;52.922;6.256;2023-11-21T04:43:29;98685.66;;;12.98;nan
12468;BME280;57850;52.922;6.256;2023-11-21T04:45:55;98296.53;;;9.84;82.67
12468;BME280;57850;52.922;6.256;2023-11-21T04:48:22;98369.63;;;10.86;77.23
12468;BME280;57850;52.922;6.256;2023-11-21T04:50:48;98175.47;;;10.12;82.70
12468;BME280;57850;52.922;6.256;2023-11-21T04:53:16;98441.09;;;12.07;77.16
12468;BME280;57850;52.922;6.256;2023-11-21T04:55:42;98170.03;;;10.37;82.73
12468;BME280;57850;52.922;6.256;2023-11-21T04:58:10;98191.13;;;10.56;82.74
12468;BME280;57850;52.922;6.256;2023-11-21T05:00:38;98224.00;;;11.02;82.79
12468;BME280;57850;52.922;6.256;2023-11-21T05:03:04;98080.28;;;10.30;83.06
12468;BME280;57850;52.922;6.256;2023-11-21T05:05:32;96679.59;;;9.99;94.08
12468;BME280;57850;52.922;6.256;2023-11-21T05:07:59;98086.25;;;10.59;83.09
12468;BME280;57850;52.922;6.256;2023-11-21T05:10:26;98056.97;;;10.60;83.09
12468;BME280;57850;52.922;6.256;2023-11-21T05:12:53;98221.75;;;11.61;83.20
12468;BME280;57850;52.922;6.256;2023-11-21T05:15:21;96955.41;;;12.27;83.25
12468;BME280;57850;52.922;6.256;2023-11-21T05:17:48;98286.75;;;12.07;83.25
12468;BME280;57850;52.922;6.256;2023-11-21T05:20:17;96944.56;;;12.03;82.92
12468;BME280;57850;52.922;6.256;2023-11-21T05:22:46;98384.47;;;12.69;77.40
12468;BME280;57850;52.922;6.256;2023-11-21T05:25:13;98294.59;;;11.93;94.33
12468;BME280;57850;52.922;6.256;2023-11-21T05:27:40;96922.28;;;11.90;94.50
12468;BME280;57850;52.922;6.256;2023-11-21T05:30:07;98357.88;;;12.31;82.93
12468;BME280;57850;52.922;6.256;2023-11-21T05:32:39;98368.03;;;12.36;82.93
12468;BME280;57850;52.922;6.256;2023-11-21T05:35:07;98393.44;;;12.54;82.95
12468;BME280;57850;52.922;6.256;2023-11-21T05:37:37;98388.16;;;12.65;83.31
12468;BME280;57850;52.922;6.256;2023-11-21T05:40:05;98411.69;;;12.65;77.39
12468;BME280;57850;52.922;6.256;2023-11-21T05:42:32;98460.34;;;12.69;77.22
12468;BME280;57850;52.922;6.256;2023-11-21T05:44:59;98446.00;;;12.72;77.39
12468;BME280;57850;52.922;6.256;2023-11-21T05:47:35;98410.66;;;12.35;77.36
12468;BME280;57850;52.922;6.256;2023-11-21T05:50:04;98371.59;;;12.03;77.16
12468;BME280;57850;52.922;6.256;2023-11-21T05:52:35;98365.09;;;12.30;72.88
12468;BME280;57850;52.922;6.256;2023-11-21T05:55:02;98331.69;;;12.34;72.87
12468;BME280;57850;52.922;6.256;2023-11-21T05:57:30;86292.03;;;12.34;100.00
12468;BME280;57850;52.922;6.256;2023-11-21T05:59:56;98322.44;;;12.30;74.40
12468;BME280;57850;52.922;6.256;2023-11-21T06:02:23;98281.59;;;11.97;72.89
12468;BME280;57850;52.922;6.256;2023-11-21T06:04:51;98300.53;;;12.10;72.85
12468;BME280;57850;52.922;6.256;2023-11-21T06:07:19;98190.97;;;11.24;72.83
12468;BME280;57850;52.922;6.256;2023-11-21T06:09:45;98274.72;;;11.75;72.83
12468;BME280;57850;52.922;6.256;2023-11-21T06:12:14;98380.81;;;12.19;72.84
12468;BME280;57850;52.922;6.256;2023-11-21T06:14:41;98251.09;;;11.66;72.82
12468;BME280;57850;52.922;6.256;2023-11-21T06:17:08;98338.09;;;12.09;72.85
12468;BME280;57850;52.922;6.256;2023-11-21T06:19:35;98321.44;;;11.90;72.84
12468;BME280;57850;52.922;6.256;2023-11-21T06:22:01;98295.13;;;12.23;72.84
12468;BME280;57850;52.922;6.256;2023-11-21T06:24:29;98323.56;;;12.16;72.91
12468;BME280;57850;52.922;6.256;2023-11-21T06:26:56;98280.84;;;12.06;72.89
12468;BME280;57850;52.922;6.256;2023-11-21T06:29:24;98279.44;;;11.81;74.26
12468;BME280;57850;52.922;6.256;2023-11-21T06:31:52;98194.56;;;11.76;74.26
12468;BME280;57850;52.922;6.256;2023-11-21T06:34:20;98315.31;;;12.00;72.89
12468;BME280;57850;52.922;6.256;2023-11-21T06:36:46;98297.94;;;11.47;74.24
12468;BME280;57850;52.922;6.256;2023-11-21T06:39:13;98222.84;;;11.39;74.32
12468;BME280;57850;52.922;6.256;2023-11-21T06:41:43;98288.06;;;11.93;72.84
12468;BME280;57850;52.922;6.256;2023-11-21T06:44:09;98323.88;;;12.23;74.30
12468;BME280;57850;52.922;6.256;2023-11-21T06:46:36;98263.41;;;11.73;82.87
12468;BME280;57850;52.922;6.256;2023-11-21T06:49:04;98288.00;;;11.92;94.33
12468;BME280;57850;52.922;6.256;2023-11-21T06:51:31;98311.16;;;12.03;94.35
12468;BME280;57850;52.922;6.256;2023-11-21T06:53:58;98263.09;;;11.73;82.87
12468;BME280;57850;52.922;6.256;2023-11-21T06:56:25;98310.00;;;11.89;77.32
12468;BME280;57850;52.922;6.256;2023-11-21T06:58:53;98383.47;;;12.91;nan
12468;BME280;57850;52.922;6.256;2023-11-21T07:01:19;98522.41;;;12.99;nan
12468;BME280;57850;52.922;6.256;2023-11-21T07:03:46;98643.16;;;12.95;nan
12468;BME280;57850;52.922;6.256;2023-11-21T07:06:13;98734.69;;;12.85;72.88
12468;BME280;57850;52.922;6.256;2023-11-21T07:08:39;98782.16;;;12.92;72.89
12468;BME280;57850;52.922;6.256;2023-11-21T07:11:06;98834.88;;;12.87;nan
12468;BME280;57850;52.922;6.256;2023-11-21T07:13:33;98854.75;;;12.89;nan
12468;BME280;57850;52.922;6.256;2023-11-21T07:16:01;98906.25;;;12.89;nan
12468;BME280;57850;52.922;6.256;2023-11-21T07:18:28;98930.75;;;12.88;nan
12468;BME280;57850;52.922;6.256;2023-11-21T07:20:55;98945.50;;;12.89;72.89
12468;BME280;57850;52.922;6.256;2023-11-21T07:23:21;98981.78;;;12.82;nan
12468;BME280;57850;52.922;6.256;2023-11-21T07:25:48;98991.56;;;12.92;nan
12468;BME280;57850;52.922;6.256;2023-11-21T07:28:15;99032.59;;;12.91;nan
12468;BME280;57850;52.922;6.256;2023-11-21T07:30:42;99063.75;;;12.83;nan
12468;BME280;57850;52.922;6.256;2023-11-21T07:33:10;99065.69;;;12.92;nan
12468;BME280;57850;52.922;6.256;2023-11-21T07:35:36;99081.41;;;13.03;nan
12468;BME280;57850;52.922;6.256;2023-11-21T07:38:03;98520.13;;;8.53;74.07
12468;BME280;57850;52.922;6.256;2023-11-21T07:40:30;97643.69;;;7.61;82.43
12468;BME280;57850;52.922;6.256;2023-11-21T07:42:56;98441.94;;;8.43;77.00
12468;BME280;57850;52.922;6.256;2023-11-21T07:45:23;98966.28;;;12.68;nan
12468;BME280;57850;52.922;6.256;2023-11-21T07:47:52;98991.69;;;13.01;nan
12468;BME280;57850;52.922;6.256;2023-11-21T07:50:21;99091.91;;;13.03;nan
12468;BME280;57850;52.922;6.256;2023-11-21T07:52:48;99177.31;;;12.93;nan
12468;BME280;57850;52.922;6.256;2023-11-21T07:55:15;99223.25;;;12.97;nan
12468;BME280;57850;52.922;6.256;2023-11-21T07:57:42;99246.72;;;12.99;nan
12468;BME280;57850;52.922;6.256;2023-11-21T08:00:10;99287.34;;;13.04;nan
12468;BME280;57850;52.922;6.256;2023-11-21T08:02:37;99314.34;;;13.17;nan
12468;BME280;57850;52.922;6.256;2023-11-21T08:05:04;99368.94;;;13.23;nan
12468;BME280;57850;52.922;6.256;2023-11-21T08:07:33;99405.81;;;13.20;nan
12468;BME280;57850;52.922;6.256;2023-11-21T08:10:01;99444.25;;;13.20;nan
12468;BME280;57850;52.922;6.256;2023-11-21T08:12:28;99478.09;;;13.23;nan
12468;BME280;57850;52.922;6.256;2023-11-21T08:14:55;99500.19;;;13.19;nan
12468;BME280;57850;52.922;6.256;2023-11-21T08:17:21;99516.31;;;13.13;nan
12468;BME280;57850;52.922;6.256;2023-11-21T08:19:49;99514.25;;;13.18;nan
12468;BME280;57850;52.922;6.256;2023-11-21T08:22:16;99556.00;;;13.07;nan
12468;BME280;57850;52.922;6.256;2023-11-21T08:24:45;99559.88;;;12.62;nan
12468;BME280;57850;52.922;6.256;2023-11-21T08:27:12;99468.53;;;12.71;nan
12468;BME280;57850;52.922;6.256;2023-11-21T08:29:41;99424.97;;;12.83;nan
12468;BME280;57850;52.922;6.256;2023-11-21T08:32:08;99409.47;;;12.67;nan
12468;BME280;57850;52.922;6.256;2023-11-21T08:34:35;99398.88;;;12.69;nan
12468;BME280;57850;52.922;6.256;2023-11-21T08:37:02;99392.94;;;12.79;nan
12468;BME280;57850;52.922;6.256;2023-11-21T08:39:28;98954.13;;;9.53;74.07
12468;BME280;57850;52.922;6.256;2023-11-21T08:41:57;99075.63;;;10.24;72.71
12468;BME280;57850;52.922;6.256;2023-11-21T08:44:23;99033.66;;;10.67;72.78
12468;BME280;57850;52.922;6.256;2023-11-21T08:46:50;99082.28;;;11.33;72.79
12468;BME280;57850;52.922;6.256;2023-11-21T08:49:17;99173.13;;;11.80;72.81
12468;BME280;57850;52.922;6.256;2023-11-21T08:51:44;99089.59;;;11.41;72.80
12468;BME280;57850;52.922;6.256;2023-11-21T08:54:11;99093.41;;;11.42;72.84
12468;BME280;57850;52.922;6.256;2023-11-21T08:56:37;99083.22;;;11.45;72.78
12468;BME280;57850;52.922;6.256;2023-11-21T08:59:05;98687.13;;;9.10;74.04
12468;BME280;57850;52.922;6.256;2023-11-21T09:01:33;98834.41;;;9.93;72.68
12468;BME280;57850;52.922;6.256;2023-11-21T09:03:59;98694.94;;;9.10;74.04
12468;BME280;57850;52.922;6.256;2023-11-21T09:06:27;98758.38;;;9.34;72.68
12468;BME280;57850;52.922;6.256;2023-11-21T09:08:54;98950.84;;;10.44;72.76
12468;BME280;57850;52.922;6.256;2023-11-21T09:11:20;98961.50;;;10.41;72.71
12468;BME280;57850;52.922;6.256;2023-11-21T09:13:47;98981.69;;;10.64;72.78
12468;BME280;57850;52.922;6.256;2023-11-21T09:16:15;98866.69;;;9.63;72.69
12468;BME280;57850;52.922;6.256;2023-11-21T09:18:42;98920.50;;;10.04;72.68
12468;BME280;57850;52.922;6.256;2023-11-21T09:21:08;98874.34;;;9.79;72.71
12468;BME280;57850;52.922;6.256;2023-11-21T09:23:35;99045.38;;;11.00;72.77
12468;BME280;57850;52.922;6.256;2023-11-21T09:26:02;99029.84;;;10.59;72.73
12468;BME280;57850;52.922;6.256;2023-11-21T09:28:30;98912.69;;;9.77;72.66
12468;BME280;57850;52.922;6.256;2023-11-21T09:30:57;98972.34;;;9.94;72.68
12468;BME280;57850;52.922;6.256;2023-11-21T09:33:25;99225.41;;;9.95;72.81
12468;BME280;57850;52.922;6.256;2023-11-21T09:35:51;99120.16;;;10.74;72.75
12468;BME280;57850;52.922;6.256;2023-11-21T09:38:18;99227.19;;;10.82;72.78
12468;BME280;57850;52.922;6.256;2023-11-21T09:40:45;99334.16;;;11.42;72.82
12468;BME280;57850;52.922;6.256;2023-11-21T09:43:16;98932.94;;;9.31;72.67
12468;BME280;57850;52.922;6.256;2023-11-21T09:45:45;99285.34;;;11.15;72.78
12468;BME280;57850;52.922;6.256;2023-11-21T09:48:13;99127.53;;;9.98;72.73
12468;BME280;57850;52.922;6.256;2023-11-21T09:50:43;99189.34;;;10.25;72.75
12468;BME280;57850;52.922;6.256;2023-11-21T09:53:13;99390.81;;;11.54;72.81
12468;BME280;57850;52.922;6.256;2023-11-21T09:55:42;99342.03;;;11.13;72.78
12468;BME280;57850;52.922;6.256;2023-11-21T09:58:10;99304.97;;;10.38;72.76
12468;BME280;57850;52.922;6.256;2023-11-21T10:00:40;99376.59;;;10.46;72.77
12468;BME280;57850;52.922;6.256;2023-11-21T10:03:07;99279.00;;;10.36;72.76
12468;BME280;57850;52.922;6.256;2023-11-21T10:05:34;99461.09;;;11.02;72.77
12468;BME280;57850;52.922;6.256;2023-11-21T10:08:04;99597.69;;;11.89;72.82
12468;BME280;57850;52.922;6.256;2023-11-21T10:10:33;99563.00;;;11.14;72.78
12468;BME280;57850;52.922;6.256;2023-11-21T10:13:02;99752.28;;;11.67;72.80
12468;BME280;57850;52.922;6.256;2023-11-21T10:15:33;99763.75;;;11.64;72.82
12468;BME280;57850;52.922;6.256;2023-11-21T10:18:01;99737.25;;;11.41;72.80
12468;BME280;57850;52.922;6.256;2023-11-21T10:20:29;99667.56;;;11.27;72.79
12468;BME280;57850;52.922;6.256;2023-11-21T10:22:56;99672.03;;;11.09;72.82
12468;BME280;57850;52.922;6.256;2023-11-21T10:25:24;99773.41;;;11.33;72.79
12468;BME280;57850;52.922;6.256;2023-11-21T10:27:57;99908.72;;;11.89;72.84
12468;BME280;57850;52.922;6.256;2023-11-21T10:30:27;99876.16;;;11.94;72.84
12468;BME280;57850;52.922;6.256;2023-11-21T10:32:58;99893.16;;;11.87;72.84
12468;BME280;57850;52.922;6.256;2023-11-21T10:35:38;99923.56;;;11.72;72.80
12468;BME280;57850;52.922;6.256;2023-11-21T10:38:05;100012.38;;;11.74;72.83
12468;BME280;57850;52.922;6.256;2023-11-21T10:40:37;100309.31;;;15.54;nan
12468;BME280;57850;52.922;6.256;2023-11-21T10:43:06;100705.81;;;12.51;nan
12468;BME280;57850;52.922;6.256;2023-11-21T10:45:34;100514.38;;;12.41;nan
12468;BME280;57850;52.922;6.256;2023-11-21T10:48:05;100381.00;;;12.57;nan
12468;BME280;57850;52.922;6.256;2023-11-21T10:50:33;100348.19;;;12.34;nan
12468;BME280;57850;52.922;6.256;2023-11-21T10:53:01;100294.72;;;12.40;nan
12468;BME280;57850;52.922;6.256;2023-11-21T10:55:29;100248.28;;;12.43;nan
12468;BME280;57850;52.922;6.256;2023-11-21T10:57:59;100215.88;;;12.46;nan
12468;BME280;57850;52.922;6.256;2023-11-21T11:00:27;100272.22;;;12.35;nan
12468;BME280;57850;52.922;6.256;2023-11-21T11:02:55;100302.88;;;12.16;nan
12468;BME280;57850;52.922;6.256;2023-11-21T11:05:24;100303.13;;;11.95;nan
12468;BME280;57850;52.922;6.256;2023-11-21T11:07:55;100288.59;;;12.06;nan
12468;BME280;57850;52.922;6.256;2023-11-21T11:10:25;100282.53;;;12.39;nan
12468;BME280;57850;52.922;6.256;2023-11-21T11:12:53;100333.69;;;12.44;nan
12468;BME280;57850;52.922;6.256;2023-11-21T11:15:22;100397.06;;;12.33;nan
12468;BME280;57850;52.922;6.256;2023-11-21T11:17:49;100502.88;;;12.09;nan
12468;BME280;57850;52.922;6.256;2023-11-21T11:20:17;100484.66;;;12.25;nan
12468;BME280;57850;52.922;6.256;2023-11-21T11:22:52;100515.25;;;12.42;nan
12468;BME280;57850;52.922;6.256;2023-11-21T11:25:41;100575.06;;;12.49;nan
12468;BME280;57850;52.922;6.256;2023-11-21T11:28:17;100644.38;;;12.22;nan
12468;BME280;57850;52.922;6.256;2023-11-21T11:30:57;100682.94;;;12.56;nan
12468;BME280;57850;52.922;6.256;2023-11-21T11:33:35;100762.50;;;12.52;nan
12468;BME280;57850;52.922;6.256;2023-11-21T11:36:06;100789.97;;;12.62;nan
12468;BME280;57850;52.922;6.256;2023-11-21T11:38:37;100846.16;;;12.53;nan
12468;BME280;57850;52.922;6.256;2023-11-21T11:41:05;100894.38;;;12.48;nan
12468;BME280;57850;52.922;6.256;2023-11-21T11:43:32;100955.63;;;12.44;nan
12468;BME280;57850;52.922;6.256;2023-11-21T11:46:06;101026.63;;;12.14;nan
12468;BME280;57850;52.922;6.256;2023-11-21T11:48:35;101032.47;;;12.21;nan
12468;BME280;57850;52.922;6.256;2023-11-21T11:51:05;101047.66;;;12.33;nan
12468;BME280;57850;52.922;6.256;2023-11-21T11:53:38;101086.47;;;12.44;nan
12468;BME280;57850;52.922;6.256;2023-11-21T11:56:26;101083.34;;;12.77;nan
12468;BME280;57850;52.922;6.256;2023-11-21T11:58:55;101094.31;;;12.87;nan
12468;BME280;57850;52.922;6.256;2023-11-21T12:01:24;101136.00;;;12.92;nan
12468;BME280;57850;52.922;6.256;2023-11-21T12:04:25;101170.06;;;13.13;nan
12468;BME280;57850;52.922;6.256;2023-11-21T12:07:00;101264.59;;;13.07;nan
12468;BME280;57850;52.922;6.256;2023-11-21T12:09:28;101312.06;;;13.00;nan
12468;BME280;57850;52.922;6.256;2023-11-21T12:11:56;101349.97;;;12.89;nan
12468;BME280;57850;52.922;6.256;2023-11-21T12:14:23;101357.59;;;12.96;nan
12468;BME280;57850;52.922;6.256;2023-11-21T12:16:52;101387.31;;;12.95;nan
12468;BME280;57850;52.922;6.256;2023-11-21T12:19:20;101383.97;;;13.81;nan
12468;BME280;57850;52.922;6.256;2023-11-21T12:21:48;101480.22;;;15.23;nan
12468;BME280;57850;52.922;6.256;2023-11-21T12:24:15;101701.28;;;15.39;nan
12468;BME280;57850;52.922;6.256;2023-11-21T12:26:43;101819.81;;;14.91;nan
12468;BME280;57850;52.922;6.256;2023-11-21T12:29:10;101844.22;;;15.38;nan
12468;BME280;57850;52.922;6.256;2023-11-21T12:31:37;101935.88;;;15.48;nan
12468;BME280;57850;52.922;6.256;2023-11-21T12:34:05;101973.59;;;15.24;nan
12468;BME280;57850;52.922;6.256;2023-11-21T12:36:32;102003.72;;;14.41;nan
12468;BME280;57850;52.922;6.256;2023-11-21T12:39:00;101979.28;;;14.39;nan
12468;BME280;57850;52.922;6.256;2023-11-21T12:41:27;101938.00;;;14.17;nan
12468;BME280;57850;52.922;6.256;2023-11-21T12:43:55;101977.84;;;13.75;nan
12468;BME280;57850;52.922;6.256;2023-11-21T12:46:21;101974.44;;;13.44;nan
12468;BME280;57850;52.922;6.256;2023-11-21T12:48:48;101913.47;;;13.91;nan
12468;BME280;57850;52.922;6.256;2023-11-21T12:51:16;101959.66;;;14.23;nan
12468;BME280;57850;52.922;6.256;2023-11-21T12:53:44;101966.91;;;14.68;nan
12468;BME280;57850;52.922;6.256;2023-11-21T12:56:12;102028.56;;;15.55;nan
12468;BME280;57850;52.922;6.256;2023-11-21T12:58:44;102090.28;;;15.70;nan
12468;BME280;57850;52.922;6.256;2023-11-21T13:01:12;102136.31;;;15.33;nan
12468;BME280;57850;52.922;6.256;2023-11-21T13:03:45;102164.03;;;15.43;nan
12468;BME280;57850;52.922;6.256;2023-11-21T13:06:14;102228.56;;;15.01;nan
12468;BME280;57850;52.922;6.256;2023-11-21T13:08:44;102220.47;;;14.81;73.04
12468;BME280;57850;52.922;6.256;2023-11-21T13:11:11;102221.53;;;14.75;nan
12468;BME280;57850;52.922;6.256;2023-11-21T13:13:40;102232.97;;;14.73;nan
12468;BME280;57850;52.922;6.256;2023-11-21T13:16:08;102218.94;;;14.44;nan